Time;durP1;ratioP1;P1;durP2;ratioP2;P2;SDS_P1;SDS_P2;PMS_P1;PMS_P2;Temp;Humidity;BMP_temperature;BMP_pressure;BME280_temperature;BME280_humidity;BME280_pressure;Samples;Min_cycle;Max_cycle;Signal;HPM_P1;HPM_P2
2021/01/23 00:01:23;;;;;;;8.95;5.50;;;256.10;2022.40;;;;;;4911592;29;20025;-68
2021/01/23 00:03:50;;;;;;;13.15;6.20;;;256.10;2022.40;;;;;;4913310;29;20047;-68
2021/01/23 00:06:16;;;;;;;9.60;5.57;;;256.10;2022.40;;;;;;4914293;29;20020;-68
2021/01/23 00:08:41;;;;;;;9.25;5.25;;;256.00;2022.40;;;;;;4911505;29;20375;-71
2021/01/23 00:11:08;;;;;;;8.35;5.28;;;256.00;2022.40;;;;;;4914889;29;20099;-68
2021/01/23 00:13:33;;;;;;;9.45;5.80;;;256.00;2022.40;;;;;;4913470;29;20172;-68
2021/01/23 00:15:59;;;;;;;8.40;5.55;;;231.30;2048.00;;;;;;4914162;29;20103;-68
2021/01/23 00:18:25;;;;;;;9.93;6.00;;;231.30;2048.00;;;;;;4910653;29;20043;-72
2021/01/23 00:20:51;;;;;;;10.20;6.03;;;231.30;2048.00;;;;;;4912042;29;20028;-73
2021/01/23 00:23:17;;;;;;;11.27;5.30;;;231.30;2048.00;;;;;;4912710;29;20037;-68
2021/01/23 00:25:42;;;;;;;9.60;5.15;;;231.20;2048.00;;;;;;4914339;29;20098;-71
2021/01/23 00:28:08;;;;;;;7.13;5.00;;;231.20;2048.00;;;;;;4914283;29;20028;-67
2021/01/23 00:30:34;;;;;;;9.05;5.25;;;231.20;2048.00;;;;;;4913864;29;20032;-68
2021/01/23 00:32:59;;;;;;;11.45;5.35;;;231.20;2048.00;;;;;;4913270;29;20036;-67
2021/01/23 00:35:25;;;;;;;7.82;4.72;;;231.20;2048.00;;;;;;4915121;29;20475;-71
2021/01/23 00:37:51;;;;;;;9.13;5.03;;;231.20;2022.40;;;;;;4917517;29;20390;-68
2021/01/23 00:40:17;;;;;;;7.60;4.78;;;231.30;2022.40;;;;;;4915950;29;20028;-71
2021/01/23 00:42:43;;;;;;;8.88;5.10;;;231.20;2022.40;;;;;;4916489;29;20032;-70
2021/01/23 00:45:09;;;;;;;9.02;5.18;;;231.30;1996.80;;;;;;4916489;29;20024;-69
2021/01/23 00:47:35;;;;;;;8.77;4.70;;;256.00;1996.80;;;;;;4917204;29;20032;-66
2021/01/23 00:50:01;;;;;;;11.73;4.80;;;256.00;1996.80;;;;;;4917371;29;20036;-70
2021/01/23 00:52:27;;;;;;;7.88;4.60;;;231.30;2022.40;;;;;;4893823;29;650811;-67
2021/01/23 00:54:52;;;;;;;7.47;4.38;;;231.30;1996.80;;;;;;4915259;29;20057;-70
2021/01/23 00:57:18;;;;;;;10.13;4.53;;;231.30;1996.80;;;;;;4918475;29;20466;-70
2021/01/23 00:59:44;;;;;;;7.57;4.57;;;256.00;1996.80;;;;;;4917449;29;20043;-68
2021/01/23 01:02:09;;;;;;;8.85;4.40;;;256.00;1996.80;;;;;;4917781;29;20091;-70
2021/01/23 01:04:35;;;;;;;6.88;4.45;;;231.30;1996.80;;;;;;4917968;29;20038;-72
2021/01/23 01:07:01;;;;;;;7.20;4.55;;;231.30;1996.80;;;;;;4918035;29;20020;-71
2021/01/23 01:09:26;;;;;;;8.50;4.47;;;231.20;1996.80;;;;;;4917254;29;20501;-69
2021/01/23 01:11:52;;;;;;;7.07;4.72;;;231.20;2022.40;;;;;;4917318;29;20042;-71
2021/01/23 01:14:18;;;;;;;8.00;5.07;;;231.10;2022.40;;;;;;4916973;29;20505;-68
2021/01/23 01:16:43;;;;;;;7.93;4.28;;;231.10;2022.40;;;;;;4917314;29;20442;-68
2021/01/23 01:19:09;;;;;;;7.82;4.57;;;256.40;2022.40;;;;;;4918062;29;20482;-71
2021/01/23 01:21:35;;;;;;;12.63;4.72;;;231.10;2022.40;;;;;;4917521;29;20063;-68
2021/01/23 01:24:01;;;;;;;7.55;4.82;;;231.10;2022.40;;;;;;4917369;29;20040;-66
2021/01/23 01:26:26;;;;;;;7.20;4.45;;;231.20;2022.40;;;;;;4914980;29;20038;-69
2021/01/23 01:28:52;;;;;;;10.93;4.72;;;231.20;1996.80;;;;;;4914409;29;20482;-68
2021/01/23 01:31:19;;;;;;;9.52;4.13;;;231.20;1996.80;;;;;;4916211;29;20036;-71
2021/01/23 01:33:45;;;;;;;8.52;4.20;;;231.30;1971.20;;;;;;4917257;29;20087;-68
2021/01/23 01:36:11;;;;;;;7.63;4.20;;;256.00;1971.20;;;;;;4917110;29;20024;-70
2021/01/23 01:38:36;;;;;;;8.15;3.97;;;256.10;1945.60;;;;;;4917253;29;20036;-67
2021/01/23 01:41:02;;;;;;;7.30;3.90;;;256.20;1945.60;;;;;;4916362;29;20025;-69
2021/01/23 01:43:28;;;;;;;7.22;3.90;;;256.20;1920.00;;;;;;4916267;29;20031;-69
2021/01/23 01:45:54;;;;;;;6.53;3.90;;;256.20;1945.60;;;;;;4915936;29;20036;-69
2021/01/23 01:48:20;;;;;;;7.65;4.07;;;256.20;1945.60;;;;;;4916760;29;20028;-70
2021/01/23 01:50:46;;;;;;;6.55;4.03;;;256.20;1945.60;;;;;;4917458;29;20505;-67
2021/01/23 01:53:12;;;;;;;6.22;3.90;;;256.10;1945.60;;;;;;4916807;29;20140;-68
2021/01/23 01:55:38;;;;;;;5.97;4.05;;;256.10;1945.60;;;;;;4915960;29;20046;-70
2021/01/23 01:58:03;;;;;;;10.50;4.40;;;256.00;1971.20;;;;;;4916715;29;20032;-68
2021/01/23 02:00:30;;;;;;;8.82;4.30;;;256.00;1971.20;;;;;;4915383;29;20071;-66
2021/01/23 02:03:14;;;;;;;5.40;3.72;;;231.30;1971.20;;;;;;4914406;29;20036;-69
2021/01/23 02:06:01;;;;;;;8.43;4.28;;;231.30;1996.80;;;;;;4916998;29;20166;-68
2021/01/23 02:08:45;;;;;;;8.88;4.28;;;231.20;1971.20;;;;;;4912504;29;20028;-68
2021/01/23 02:11:20;;;;;;;;;;;231.20;1996.80;;;;;;4913486;29;20036;-68
2021/01/23 02:13:53;;;;;;;9.70;4.47;;;231.10;1996.80;;;;;;4916712;29;19919;-71
2021/01/23 02:16:29;;;;;;;9.05;4.63;;;231.00;2022.40;;;;;;4916220;29;20024;-69
2021/01/23 02:19:52;;;;;;;11.18;4.70;;;231.00;2022.40;;;;;;4916464;29;20062;-69
2021/01/23 02:22:32;;;;;;;6.72;4.50;;;230.90;2022.40;;;;;;4868476;29;20546;-68
2021/01/23 02:25:00;;;;;;;7.38;4.18;;;230.70;2048.00;;;;;;4858908;29;20508;-71
2021/01/23 02:27:49;;;;;;;9.63;4.40;;;230.90;2048.00;;;;;;4876043;29;20045;-68
2021/01/23 02:30:21;;;;;;;10.10;4.75;;;230.80;2048.00;;;;;;4875991;29;20039;-72
2021/01/23 02:32:50;;;;;;;8.95;4.50;;;230.80;2048.00;;;;;;4876784;29;20045;-67
2021/01/23 02:35:17;;;;;;;7.50;4.60;;;230.70;2048.00;;;;;;4876817;29;20029;-68
2021/01/23 02:37:43;;;;;;;6.90;4.35;;;230.70;2073.60;;;;;;4874171;29;20546;-68
2021/01/23 02:40:10;;;;;;;8.02;4.65;;;230.70;2073.60;;;;;;4873354;29;20045;-68
2021/01/23 02:42:36;;;;;;;8.43;4.53;;;230.70;2073.60;;;;;;4859566;29;20534;-68
2021/01/23 02:45:05;;;;;;;6.03;3.60;;;230.70;2048.00;;;;;;4873830;29;20033;-69
2021/01/23 02:47:31;;;;;;;7.50;3.63;;;231.00;1971.20;;;;;;4876566;29;20041;-68
2021/01/23 02:49:57;;;;;;;7.18;3.53;;;256.00;1894.40;;;;;;4875802;29;20567;-70
2021/01/23 02:52:28;;;;;;;3.83;2.95;;;256.10;1868.80;;;;;;4884569;29;20047;-71
2021/01/23 02:55:03;;;;;;;6.43;3.30;;;256.30;1843.20;;;;;;4915994;29;20467;-69
2021/01/23 02:57:29;;;;;;;6.07;3.25;;;256.40;1843.20;;;;;;4915085;29;20047;-67
2021/01/23 02:59:59;;;;;;;8.50;2.92;;;256.50;1817.60;;;;;;4915390;29;20028;-71
2021/01/23 03:02:25;;;;;;;5.03;3.03;;;256.70;1792.00;;;;;;4914488;29;20505;-68
2021/01/23 03:04:52;;;;;;;7.95;3.65;;;256.80;1792.00;;;;;;4915656;29;20474;-70
2021/01/23 03:07:18;;;;;;;5.57;3.55;;;256.70;1817.60;;;;;;4914715;29;20024;-69
2021/01/23 03:09:44;;;;;;;9.50;3.88;;;256.60;1868.80;;;;;;4915209;29;20032;-68
2021/01/23 03:12:11;;;;;;;6.95;4.20;;;256.40;1868.80;;;;;;4914908;29;20028;-70
2021/01/23 03:14:37;;;;;;;8.52;3.80;;;256.10;1920.00;;;;;;4914403;29;20394;-68
2021/01/23 03:17:03;;;;;;;6.88;4.20;;;231.20;1971.20;;;;;;4913863;29;20047;-69
2021/01/23 03:19:29;;;;;;;11.23;4.60;;;231.20;1971.20;;;;;;4913880;29;20039;-67
2021/01/23 03:21:55;;;;;;;9.80;4.10;;;231.00;1971.20;;;;;;4915817;29;20426;-70
2021/01/23 03:24:21;;;;;;;9.02;4.40;;;231.00;1996.80;;;;;;4914936;29;20036;-70
2021/01/23 03:26:48;;;;;;;8.75;4.10;;;230.90;1996.80;;;;;;4916243;29;20042;-69
2021/01/23 03:29:14;;;;;;;6.88;4.05;;;230.80;1996.80;;;;;;4915836;29;20050;-66
2021/01/23 03:31:40;;;;;;;7.15;3.92;;;230.80;1996.80;;;;;;4914183;29;20032;-70
2021/01/23 03:34:06;;;;;;;7.63;3.90;;;230.80;1996.80;;;;;;4915809;29;20051;-68
2021/01/23 03:36:33;;;;;;;9.23;3.72;;;230.80;1996.80;;;;;;4914883;29;20028;-68
2021/01/23 03:38:59;;;;;;;7.35;3.72;;;230.80;1996.80;;;;;;4915746;29;20024;-70
2021/01/23 03:41:25;;;;;;;6.15;3.58;;;230.90;1996.80;;;;;;4913696;29;20028;-69
2021/01/23 03:43:50;;;;;;;6.32;3.60;;;231.00;1971.20;;;;;;4915080;29;20070;-68
2021/01/23 03:46:16;;;;;;;8.05;4.18;;;231.10;1971.20;;;;;;4914428;29;20482;-68
2021/01/23 03:48:42;;;;;;;8.13;4.10;;;231.20;1945.60;;;;;;4915421;29;20031;-69
2021/01/23 03:51:08;;;;;;;7.90;3.83;;;231.20;1945.60;;;;;;4913931;29;20067;-68
2021/01/23 03:53:34;;;;;;;10.13;3.78;;;231.20;1945.60;;;;;;4910977;29;20542;-68
2021/01/23 03:55:59;;;;;;;9.75;4.00;;;231.20;1945.60;;;;;;4914369;29;20040;-67
2021/01/23 03:58:25;;;;;;;6.40;3.47;;;231.20;1945.60;;;;;;4914563;29;20043;-71
2021/01/23 04:00:51;;;;;;;6.55;3.65;;;231.20;1920.00;;;;;;4915055;29;20064;-69
2021/01/23 04:03:17;;;;;;;10.82;4.15;;;231.30;1920.00;;;;;;4914418;29;20168;-69
2021/01/23 04:05:42;;;;;;;6.57;3.80;;;231.30;1920.00;;;;;;4915230;29;20098;-67
2021/01/23 04:08:08;;;;;;;7.88;3.63;;;231.30;1920.00;;;;;;4913836;29;20087;-67
2021/01/23 04:10:34;;;;;;;7.07;4.18;;;231.20;1920.00;;;;;;4917577;29;20096;-72
2021/01/23 04:13:00;;;;;;;9.70;4.90;;;231.20;1920.00;;;;;;4917699;29;20513;-70
2021/01/23 04:15:26;;;;;;;8.23;4.30;;;231.20;1920.00;;;;;;4918857;29;20050;-71
2021/01/23 04:17:53;;;;;;;9.63;4.20;;;231.20;1920.00;;;;;;4918526;29;20032;-70
2021/01/23 04:20:19;;;;;;;9.25;3.95;;;231.20;1920.00;;;;;;4911431;29;20127;-68
2021/01/23 04:22:46;;;;;;;6.57;3.97;;;231.10;1945.60;;;;;;4917828;29;20036;-68
2021/01/23 04:25:12;;;;;;;6.18;4.03;;;231.10;1945.60;;;;;;4902181;29;20494;-68
2021/01/23 04:27:38;;;;;;;9.02;4.22;;;231.10;1945.60;;;;;;4895871;29;20043;-67
2021/01/23 04:30:05;;;;;;;7.70;4.28;;;231.00;1945.60;;;;;;4917974;29;20043;-69
2021/01/23 04:32:31;;;;;;;7.80;4.05;;;231.00;1945.60;;;;;;4918476;29;20494;-67
2021/01/23 04:34:57;;;;;;;10.57;4.82;;;230.90;1971.20;;;;;;4918496;29;20024;-70
2021/01/23 04:37:22;;;;;;;7.57;4.00;;;230.90;1971.20;;;;;;4904851;29;20024;-66
2021/01/23 04:39:49;;;;;;;10.23;4.90;;;230.90;1971.20;;;;;;4916185;29;20027;-67
2021/01/23 04:42:14;;;;;;;8.18;4.50;;;230.90;1971.20;;;;;;4917427;29;20108;-67
2021/01/23 04:44:40;;;;;;;10.25;5.30;;;230.90;1971.20;;;;;;4917745;29;20111;-68
2021/01/23 04:47:06;;;;;;;10.93;4.88;;;230.80;1971.20;;;;;;4913298;29;20482;-66
2021/01/23 04:49:33;;;;;;;15.98;6.68;;;256.10;1971.20;;;;;;4917648;29;20067;-68
2021/01/23 04:52:03;;;;;;;15.15;6.32;;;230.80;1971.20;;;;;;4913183;29;20469;-66
2021/01/23 04:54:33;;;;;;;11.45;6.10;;;230.80;1971.20;;;;;;4917987;29;20025;-72
2021/01/23 04:56:59;;;;;;;11.13;6.20;;;230.80;1971.20;;;;;;4918533;29;20116;-69
2021/01/23 04:59:25;;;;;;;7.75;5.18;;;230.80;1971.20;;;;;;4912581;29;20063;-69
2021/01/23 05:02:19;;;;;;;14.50;4.90;;;230.80;1971.20;;;;;;4914786;29;20064;-69
2021/01/23 05:04:51;;;;;;;8.57;4.65;;;230.80;1971.20;;;;;;4903593;29;20111;-82
2021/01/23 05:07:36;;;;;;;8.13;3.83;;;230.90;1971.20;;;;;;4908059;29;20033;-78
2021/01/23 05:10:12;;;;;;;9.77;4.78;;;230.90;1945.60;;;;;;4913174;29;20035;-70
2021/01/23 05:12:39;;;;;;;10.93;4.30;;;230.90;1945.60;;;;;;4916685;29;20098;-71
2021/01/23 05:15:08;;;;;;;11.82;4.38;;;231.00;1945.60;;;;;;4917200;29;20478;-70
2021/01/23 05:17:53;;;;;;;11.45;4.70;;;231.00;1945.60;;;;;;4916616;29;20094;-78
2021/01/23 05:20:52;;;;;;;9.50;4.03;;;231.10;1920.00;;;;;;4915270;29;20024;-74
2021/01/23 05:23:21;;;;;;;9.45;4.07;;;231.20;1920.00;;;;;;4836649;29;20077;-77
2021/01/23 05:25:51;;;;;;;9.60;3.90;;;231.20;1894.40;;;;;;4840341;29;20145;-75
2021/01/23 05:28:37;;;;;;;6.90;3.67;;;231.20;1894.40;;;;;;4839348;29;20044;-78
2021/01/23 05:31:05;;;;;;;7.53;3.80;;;231.30;1894.40;;;;;;4842635;29;20068;-77
2021/01/23 05:33:32;;;;;;;11.27;3.97;;;231.30;1894.40;;;;;;4839249;29;20155;-76
2021/01/23 05:36:05;;;;;;;7.70;3.55;;;256.00;1868.80;;;;;;4837055;29;20033;-77
2021/01/23 05:38:33;;;;;;;8.13;4.28;;;256.00;1868.80;;;;;;4835804;29;20030;-78
2021/01/23 05:41:04;;;;;;;7.63;3.50;;;256.00;1868.80;;;;;;4842847;29;20083;-74
2021/01/23 05:43:34;;;;;;;9.65;3.92;;;256.10;1868.80;;;;;;4836394;29;20117;-74
2021/01/23 05:46:07;;;;;;;10.20;4.13;;;256.10;1868.80;;;;;;4836977;29;20800;-76
2021/01/23 05:48:34;;;;;;;14.73;4.68;;;256.10;1843.20;;;;;;4839491;29;20041;-74
2021/01/23 05:51:00;;;;;;;10.70;4.82;;;256.10;1843.20;;;;;;4835519;29;20550;-74
2021/01/23 05:53:26;;;;;;;9.38;4.18;;;256.10;1843.20;;;;;;4849387;29;20064;-74
2021/01/23 05:55:52;;;;;;;6.68;3.35;;;256.10;1843.20;;;;;;4838144;29;20034;-74
2021/01/23 05:58:18;;;;;;;10.27;4.00;;;256.10;1843.20;;;;;;4857983;29;20048;-82
2021/01/23 06:00:43;;;;;;;11.38;3.72;;;256.10;1843.20;;;;;;4914706;29;20024;-70
2021/01/23 06:03:11;;;;;;;7.72;4.10;;;256.10;1843.20;;;;;;4914987;29;21255;-71
2021/01/23 06:05:37;;;;;;;10.63;4.10;;;256.20;1843.20;;;;;;4905622;29;20385;-74
2021/01/23 06:08:03;;;;;;;10.60;3.25;;;256.20;1817.60;;;;;;4912169;29;20099;-72
2021/01/23 06:10:37;;;;;;;9.70;3.17;;;256.50;1766.40;;;;;;4906345;29;20087;-70
2021/01/23 06:13:04;;;;;;;6.90;3.13;;;256.50;1740.80;;;;;;4905326;29;20494;-69
2021/01/23 06:15:32;;;;;;;11.23;3.47;;;256.70;1740.80;;;;;;4914272;29;20576;-67
2021/01/23 06:18:03;;;;;;;8.63;3.38;;;256.80;1715.20;;;;;;4916179;29;20020;-67
2021/01/23 06:20:41;;;;;;;8.35;3.67;;;281.60;1715.20;;;;;;4912154;29;20032;-71
2021/01/23 06:23:16;;;;;;;11.95;3.20;;;281.60;1689.60;;;;;;4915543;29;20024;-71
2021/01/23 06:26:02;;;;;;;10.38;3.42;;;281.70;1689.60;;;;;;4913142;29;20111;-72
2021/01/23 06:28:30;;;;;;;16.88;3.95;;;281.80;1689.60;;;;;;4915224;29;20498;-69
2021/01/23 06:30:56;;;;;;;7.47;3.88;;;281.70;1689.60;;;;;;4913642;29;20024;-68
2021/01/23 06:33:22;;;;;;;9.13;3.40;;;281.60;1689.60;;;;;;4914578;29;20096;-68
2021/01/23 06:36:16;;;;;;;14.20;4.20;;;281.70;1715.20;;;;;;4914153;29;20372;-76
2021/01/23 06:39:08;;;;;;;8.30;3.60;;;281.70;1715.20;;;;;;4915856;29;20086;-79
2021/01/23 06:41:38;;;;;;;8.23;4.00;;;281.60;1715.20;;;;;;4914202;29;20055;-76
2021/01/23 06:44:06;;;;;;;11.13;4.15;;;281.60;1740.80;;;;;;4914816;29;20035;-80
2021/01/23 06:46:38;;;;;;;9.68;3.92;;;256.90;1715.20;;;;;;4897132;29;20118;-74
2021/01/23 06:49:08;;;;;;;11.32;4.57;;;256.90;1740.80;;;;;;4914709;29;20028;-70
2021/01/23 06:51:34;;;;;;;10.30;3.63;;;256.80;1740.80;;;;;;4914377;29;20044;-69
2021/01/23 06:54:19;;;;;;;8.02;3.72;;;256.70;1740.80;;;;;;4913774;29;20418;-70
2021/01/23 06:56:51;;;;;;;10.32;3.90;;;256.70;1766.40;;;;;;4913938;29;20032;-69
2021/01/23 06:59:36;;;;;;;9.27;4.00;;;256.70;1766.40;;;;;;4915218;29;20032;-69
2021/01/23 07:02:04;;;;;;;11.00;4.55;;;256.70;1740.80;;;;;;4914018;29;20040;-77
2021/01/23 07:04:44;;;;;;;10.50;3.90;;;256.70;1740.80;;;;;;4915049;29;20032;-71
2021/01/23 07:07:10;;;;;;;10.10;4.18;;;256.70;1740.80;;;;;;4914654;29;20043;-74
2021/01/23 07:09:52;;;;;;;14.95;5.90;;;256.70;1766.40;;;;;;4912758;29;20028;-75
2021/01/23 07:12:41;;;;;;;13.68;5.00;;;256.60;1766.40;;;;;;4908624;29;20451;-77
2021/01/23 07:15:13;;;;;;;12.57;7.00;;;256.60;1766.40;;;;;;4914053;29;20387;-76
2021/01/23 07:17:44;;;;;;;11.07;5.72;;;256.50;1766.40;;;;;;4909729;29;20028;-78
2021/01/23 07:20:11;;;;;;;9.80;4.90;;;256.50;1792.00;;;;;;4913451;29;20483;-75
2021/01/23 07:22:38;;;;;;;11.63;4.95;;;256.50;1792.00;;;;;;4910802;29;20055;-73
2021/01/23 07:25:06;;;;;;;12.10;5.47;;;256.40;1792.00;;;;;;4913329;29;20039;-75
2021/01/23 07:27:34;;;;;;;11.07;5.22;;;256.40;1792.00;;;;;;4914781;29;20024;-75
2021/01/23 07:29:59;;;;;;;12.70;5.68;;;256.40;1792.00;;;;;;4912131;29;20046;-70
2021/01/23 07:32:39;;;;;;;11.77;6.00;;;256.40;1817.60;;;;;;4914273;29;20557;-71
2021/01/23 07:35:06;;;;;;;16.17;5.85;;;256.30;1817.60;;;;;;4913613;29;21578;-69
2021/01/23 07:37:53;;;;;;;11.95;5.60;;;256.40;1817.60;;;;;;4909310;29;20061;-69
2021/01/23 07:40:24;;;;;;;12.40;5.90;;;256.30;1817.60;;;;;;4908124;29;20036;-77
2021/01/23 07:42:51;;;;;;;11.75;5.78;;;256.30;1817.60;;;;;;4910294;29;20035;-69
2021/01/23 07:45:17;;;;;;;14.45;6.43;;;256.30;1817.60;;;;;;4913712;29;20410;-75
2021/01/23 07:47:54;;;;;;;11.35;6.60;;;256.30;1817.60;;;;;;4912802;29;20081;-75
2021/01/23 07:50:19;;;;;;;16.30;6.97;;;256.30;1817.60;;;;;;4914939;29;20793;-76
2021/01/23 07:52:45;;;;;;;15.98;7.13;;;256.30;1817.60;;;;;;4914274;29;20067;-73
2021/01/23 07:55:12;;;;;;;14.55;7.10;;;256.30;1817.60;;;;;;4915316;29;20037;-72
2021/01/23 07:57:38;;;;;;;17.70;7.57;;;256.30;1843.20;;;;;;4916461;29;20024;-68
2021/01/23 08:00:22;;;;;;;15.48;7.82;;;256.30;1817.60;;;;;;4917534;29;20107;-70
2021/01/23 08:02:52;;;;;;;22.13;7.40;;;256.30;1817.60;;;;;;4924182;29;20090;-70
2021/01/23 08:05:19;;;;;;;22.55;10.88;;;256.40;1843.20;;;;;;4915372;29;20039;-72
2021/01/23 08:07:45;;;;;;;25.13;10.63;;;256.30;1843.20;;;;;;4914176;29;20398;-71
2021/01/23 08:10:11;;;;;;;21.42;11.02;;;256.30;1843.20;;;;;;4918207;29;20038;-81
2021/01/23 08:12:56;;;;;;;17.50;9.20;;;256.20;1843.20;;;;;;4913252;29;20036;-75
2021/01/23 08:15:25;;;;;;;14.85;7.88;;;256.20;1868.80;;;;;;4911232;29;20056;-72
2021/01/23 08:17:52;;;;;;;13.90;7.45;;;256.20;1868.80;;;;;;4916838;29;20083;-72
2021/01/23 08:20:33;;;;;;;14.98;7.53;;;256.10;1868.80;;;;;;4916457;29;20039;-78
2021/01/23 08:23:10;;;;;;;13.48;6.53;;;256.10;1868.80;;;;;;4917420;29;20155;-73
2021/01/23 08:25:54;;;;;;;36.63;17.92;;;256.10;1868.80;;;;;;4915333;29;20372;-71
2021/01/23 08:28:40;;;;;;;16.50;7.38;;;256.10;1868.80;;;;;;4913614;29;20134;-74
2021/01/23 08:31:15;;;;;;;18.17;9.10;;;256.10;1843.20;;;;;;4915607;29;20056;-74
2021/01/23 08:33:41;;;;;;;19.25;9.35;;;256.20;1868.80;;;;;;4917484;29;20040;-77
2021/01/23 08:36:07;;;;;;;14.88;7.85;;;256.20;1843.20;;;;;;4915700;29;20028;-74
2021/01/23 08:38:33;;;;;;;17.80;8.40;;;256.30;1843.20;;;;;;4911750;29;20390;-68
2021/01/23 08:40:59;;;;;;;17.77;8.57;;;256.40;1843.20;;;;;;4917372;29;20020;-68
2021/01/23 08:43:25;;;;;;;19.25;9.52;;;256.40;1817.60;;;;;;4918285;29;20029;-67
2021/01/23 08:45:51;;;;;;;19.17;9.93;;;256.50;1817.60;;;;;;4913374;29;20401;-68
2021/01/23 08:48:16;;;;;;;15.70;8.30;;;256.50;1817.60;;;;;;4918091;29;20394;-67
2021/01/23 08:50:42;;;;;;;21.70;9.75;;;256.50;1817.60;;;;;;4918092;29;20028;-66
2021/01/23 08:53:08;;;;;;;17.35;8.25;;;256.50;1817.60;;;;;;4917951;29;20048;-72
2021/01/23 08:55:33;;;;;;;16.77;7.90;;;256.60;1792.00;;;;;;4918118;29;20530;-67
2021/01/23 08:57:59;;;;;;;16.27;9.93;;;256.60;1792.00;;;;;;4918265;29;20056;-66
2021/01/23 09:00:25;;;;;;;15.60;7.43;;;256.60;1792.00;;;;;;4917800;29;20470;-66
2021/01/23 09:02:50;;;;;;;13.43;6.25;;;256.70;1792.00;;;;;;4917731;29;20032;-68
2021/01/23 09:05:16;;;;;;;13.73;7.28;;;256.70;1792.00;;;;;;4918146;29;20356;-66
2021/01/23 09:07:42;;;;;;;11.32;5.72;;;256.50;1792.00;;;;;;4914458;29;20028;-67
2021/01/23 09:10:12;;;;;;;10.95;5.85;;;256.70;1817.60;;;;;;4917765;29;20091;-67
2021/01/23 09:12:38;;;;;;;12.13;5.47;;;256.70;1792.00;;;;;;4917856;29;20036;-68
2021/01/23 09:15:06;;;;;;;14.77;5.88;;;256.70;1792.00;;;;;;4917177;29;20103;-67
2021/01/23 09:17:32;;;;;;;13.30;6.60;;;256.70;1792.00;;;;;;4913242;29;20100;-65
2021/01/23 09:19:58;;;;;;;13.27;6.07;;;256.70;1792.00;;;;;;4903676;29;20467;-67
2021/01/23 09:22:23;;;;;;;10.48;6.85;;;256.70;1792.00;;;;;;4904315;29;20084;-66
2021/01/23 09:24:49;;;;;;;11.55;6.50;;;256.70;1792.00;;;;;;4900354;29;20073;-64
2021/01/23 09:27:15;;;;;;;14.45;6.13;;;256.70;1792.00;;;;;;4901096;29;20445;-66
2021/01/23 09:29:40;;;;;;;15.73;7.50;;;256.70;1817.60;;;;;;4904841;29;20351;-65
2021/01/23 09:32:07;;;;;;;20.25;7.78;;;256.60;1817.60;;;;;;4902449;29;20032;-65
2021/01/23 09:34:34;;;;;;;18.95;8.40;;;256.60;1817.60;;;;;;4901792;29;20025;-65
2021/01/23 09:37:04;;;;;;;13.63;6.70;;;256.60;1817.60;;;;;;4897175;29;20143;-65
2021/01/23 09:39:31;;;;;;;16.30;8.82;;;256.70;1817.60;;;;;;4904411;29;20042;-65
2021/01/23 09:41:58;;;;;;;17.60;9.10;;;256.70;1817.60;;;;;;4909613;29;20081;-66
2021/01/23 09:44:24;;;;;;;22.00;9.82;;;256.70;1817.60;;;;;;4900960;29;20028;-67
2021/01/23 09:46:50;;;;;;;14.50;7.25;;;256.60;1817.60;;;;;;4905487;29;20066;-66
2021/01/23 09:49:16;;;;;;;14.07;7.32;;;256.60;1817.60;;;;;;4908442;29;20040;-65
2021/01/23 09:51:41;;;;;;;15.98;6.70;;;256.60;1817.60;;;;;;4901661;29;20040;-66
2021/01/23 09:54:07;;;;;;;15.10;7.30;;;256.60;1843.20;;;;;;4905419;29;20096;-71
2021/01/23 09:56:33;;;;;;;16.63;7.07;;;256.50;1843.20;;;;;;4884215;29;20036;-73
2021/01/23 09:58:58;;;;;;;13.93;6.78;;;256.50;1868.80;;;;;;4909167;29;20060;-71
2021/01/23 10:01:24;;;;;;;19.92;7.57;;;256.50;1843.20;;;;;;4911268;29;20056;-70
2021/01/23 10:03:50;;;;;;;13.15;6.32;;;256.50;1843.20;;;;;;4907973;29;20032;-70
2021/01/23 10:06:16;;;;;;;13.75;6.15;;;256.60;1843.20;;;;;;4912056;29;20063;-69
2021/01/23 10:08:41;;;;;;;15.82;6.47;;;256.50;1843.20;;;;;;4914446;29;20055;-71
2021/01/23 10:11:07;;;;;;;14.70;6.82;;;256.50;1843.20;;;;;;4914819;29;20032;-68
2021/01/23 10:13:33;;;;;;;13.90;6.13;;;256.50;1843.20;;;;;;4915001;29;20118;-67
2021/01/23 10:15:58;;;;;;;12.45;7.47;;;256.50;1843.20;;;;;;4916211;29;20036;-69
2021/01/23 10:18:24;;;;;;;13.18;7.00;;;256.60;1843.20;;;;;;4915664;29;20059;-68
2021/01/23 10:20:50;;;;;;;13.38;6.00;;;256.60;1843.20;;;;;;4916742;29;20024;-68
2021/01/23 10:23:16;;;;;;;13.40;6.55;;;256.50;1843.20;;;;;;4915782;29;20032;-68
2021/01/23 10:25:42;;;;;;;13.70;6.95;;;256.60;1843.20;;;;;;4917081;29;20028;-70
2021/01/23 10:28:08;;;;;;;16.45;6.40;;;256.60;1843.20;;;;;;4911367;29;20032;-68
2021/01/23 10:30:33;;;;;;;16.85;6.93;;;256.60;1868.80;;;;;;4913716;29;20470;-72
2021/01/23 10:32:59;;;;;;;17.33;6.20;;;256.60;1843.20;;;;;;4914229;29;20576;-71
2021/01/23 10:35:25;;;;;;;15.93;6.35;;;256.60;1843.20;;;;;;4915074;29;20055;-67
2021/01/23 10:37:50;;;;;;;15.57;7.90;;;256.70;1843.20;;;;;;4916661;29;20500;-67
2021/01/23 10:40:17;;;;;;;13.10;6.75;;;256.60;1843.20;;;;;;4915824;29;20024;-70
2021/01/23 10:42:43;;;;;;;13.45;6.70;;;256.70;1843.20;;;;;;4916236;29;20111;-66
2021/01/23 10:45:09;;;;;;;14.15;6.40;;;256.70;1843.20;;;;;;4916180;29;20119;-65
2021/01/23 10:47:38;;;;;;;15.32;7.15;;;256.70;1843.20;;;;;;4914863;29;20032;-69
2021/01/23 10:50:05;;;;;;;19.33;7.68;;;256.80;1843.20;;;;;;4915511;29;20035;-71
2021/01/23 10:52:31;;;;;;;13.90;6.53;;;256.70;1843.20;;;;;;4914219;29;20068;-68
2021/01/23 10:54:57;;;;;;;13.15;6.22;;;256.70;1843.20;;;;;;4912446;29;20143;-66
2021/01/23 10:57:23;;;;;;;19.85;6.55;;;256.70;1868.80;;;;;;4912518;29;20480;-66
2021/01/23 10:59:49;;;;;;;14.82;7.05;;;256.70;1868.80;;;;;;4914412;29;20024;-64
2021/01/23 11:02:14;;;;;;;17.35;8.02;;;256.70;1868.80;;;;;;4909973;29;20032;-69
2021/01/23 11:04:40;;;;;;;15.80;8.10;;;256.70;1868.80;;;;;;4916259;29;20027;-66
2021/01/23 11:07:06;;;;;;;11.15;6.75;;;256.70;1843.20;;;;;;4918623;29;20027;-67
2021/01/23 11:09:32;;;;;;;13.73;6.63;;;256.80;1843.20;;;;;;4919972;29;20020;-67
2021/01/23 11:11:57;;;;;;;19.58;9.32;;;256.90;1843.20;;;;;;4915256;29;20039;-68
2021/01/23 11:14:23;;;;;;;14.07;7.30;;;256.80;1843.20;;;;;;4914798;29;20118;-66
2021/01/23 11:16:52;;;;;;;18.08;7.32;;;256.90;1817.60;;;;;;4915794;29;20398;-67
2021/01/23 11:19:17;;;;;;;44.97;22.58;;;256.90;1817.60;;;;;;4915798;29;20040;-81
2021/01/23 11:21:43;;;;;;;70.72;39.13;;;281.60;1868.80;;;;;;4914059;29;20745;-80
2021/01/23 11:24:09;;;;;;;14.88;6.70;;;281.70;1868.80;;;;;;4916444;29;20115;-76
2021/01/23 11:26:35;;;;;;;16.02;7.78;;;281.60;1843.20;;;;;;4904382;29;20019;-76
2021/01/23 11:29:01;;;;;;;24.17;13.15;;;281.60;1868.80;;;;;;4932714;29;20382;-90
2021/01/23 11:31:28;;;;;;;14.70;8.55;;;281.70;1843.20;;;;;;4915608;29;20040;-71
2021/01/23 11:33:53;;;;;;;15.02;9.00;;;281.60;1868.80;;;;;;4915873;29;20040;-73
2021/01/23 11:36:20;;;;;;;16.15;9.32;;;281.60;1868.80;;;;;;4916330;29;20039;-75
2021/01/23 11:38:46;;;;;;;15.85;7.38;;;281.60;1868.80;;;;;;4915620;29;20032;-74
2021/01/23 11:41:11;;;;;;;18.17;8.43;;;281.60;1868.80;;;;;;4922152;29;20049;-74
2021/01/23 11:43:37;;;;;;;14.77;8.32;;;281.60;1894.40;;;;;;4915424;29;20095;-77
2021/01/23 11:46:03;;;;;;;71.18;40.83;;;281.70;1868.80;;;;;;4898819;29;20036;-82
2021/01/23 11:48:30;;;;;;;14.80;7.30;;;281.80;1868.80;;;;;;4915672;29;20035;-80
2021/01/23 11:50:57;;;;;;;16.38;7.50;;;281.80;1868.80;;;;;;4915445;29;20526;-81
2021/01/23 11:53:23;;;;;;;14.45;7.53;;;281.90;1868.80;;;;;;4916482;29;20386;-79
2021/01/23 11:55:49;;;;;;;17.70;7.88;;;282.00;1843.20;;;;;;4920015;29;20054;-79
2021/01/23 11:58:18;;;;;;;19.38;9.75;;;282.00;1843.20;;;;;;4915860;29;20028;-79
2021/01/23 12:00:44;;;;;;;15.93;7.70;;;282.10;1868.80;;;;;;4909440;29;20024;-79
2021/01/23 12:03:10;;;;;;;13.02;6.72;;;282.20;1843.20;;;;;;4914896;29;20028;-79
2021/01/23 12:05:36;;;;;;;15.10;7.60;;;282.20;1843.20;;;;;;4928263;29;20100;-80
2021/01/23 12:08:01;;;;;;;13.07;6.70;;;282.30;1843.20;;;;;;4919811;29;20107;-88
2021/01/23 12:10:27;;;;;;;10.25;6.35;;;282.50;1792.00;;;;;;4918422;29;20541;-75
2021/01/23 12:12:55;;;;;;;15.05;7.13;;;307.30;1792.00;;;;;;4915183;29;20029;-73
2021/01/23 12:15:22;;;;;;;14.68;6.85;;;307.40;1792.00;;;;;;4913399;29;20461;-74
2021/01/23 12:17:49;;;;;;;14.05;6.47;;;307.40;1792.00;;;;;;4927630;29;20028;-77